GCXO Airport Information

Runway Information
Runway 12 Length 11155 ft width 148 ft
Elevation 2060 ft Threshold 0 ft Heading 111
Runway 30 Length 11155 ft Width 148 ft
Elevation 2002 ft Threshold 0 ft Heading 291
Airport Frequencies
Type APP Name APP Frequency 119.7 MHZ
Type ATIS Name ATIS Frequency 118.575 MHZ
Type GND Name GND Frequency 121.7 MHZ
Type TWR Name TWR Frequency 118.7 MHZ
Airport Navaids
Type VOR-DME Name Tenerife Norte Frequency 117700 KHZ
Type NDB Name Tenerife Norte Frequency 410 KHZ
Airport Weather Information & NOTAM
ADDS - METARS form results

(0633 UTC 16 September 2019)
Data provider http://aviationweather.gov/metar/data/
 
METAR text: GCXO 160607Z 18010KT 140V210 9999 RA FEW004 BKN100 23/12 Q1021 TEMPO TS SCT130CB
Conditions at: GCXO (TENERIFE/LOS ROD, ES) observed 0607 UTC 16 September 2019
Temperature: 23.0°C (73°F)
Dewpoint: 12.0°C (54°F) [RH = 50%]
Pressure (altimeter): 30.15 inches Hg (1021.0 mb)
Winds: from the S (180 degrees) at 12 MPH (10 knots; 5.1 m/s)
Visibility: 6 or more miles (10+ km)
Ceiling: 10000 feet AGL
Clouds: few clouds at 400 feet AGL
broken clouds at 10000 feet AGL
Weather: RA  (moderate rain)

METAR text: GCXO 160600Z 16010KT 120V260 9999 FEW004 SCT055 BKN120 21/13 Q1021 TEMPO TS RA SCT130CB
Conditions at: GCXO (TENERIFE/LOS ROD, ES) observed 0600 UTC 16 September 2019
Temperature: 21.0°C (70°F)
Dewpoint: 13.0°C (55°F) [RH = 60%]
Pressure (altimeter): 30.15 inches Hg (1021.0 mb)
Winds: from the SSE (160 degrees) at 12 MPH (10 knots; 5.1 m/s)
Visibility: 6 or more miles (10+ km)
Ceiling: 12000 feet AGL
Clouds: few clouds at 400 feet AGL
scattered clouds at 5500 feet AGL
broken clouds at 12000 feet AGL
Weather: no significant weather observed at this time

Forecast for: AMD
Text: TAF AMD GCXO 160614Z 1606/1703 30007KT 9999 FEW004 BKN120 TX28/1614Z TN20/1606Z
Forecast period: 0600 UTC 16 September 2019 to 0300 UTC 17 September 2019
Forecast type: FROM: standard forecast or significant change
Winds: from the WNW (300 degrees) at 8 MPH (7 knots; 3.6 m/s)
Visibility: 6 or more miles 10+ km)
Ceiling: 12000 feet AGL
Clouds: few clouds at 400 feet AGL
broken clouds at 12000 feet AGL
Weather: no significant weather forecast for this period
Text: TEMPO 1606/1609 30017KT
Forecast period: 0600 to 0900 UTC 16 September 2019
Forecast type: TEMPORARY: The following changes expected for less than half the time period
Winds: from the WNW (300 degrees) at 20 MPH (17 knots; 8.7 m/s)
Visibility: missing
Ceiling: unknown
Clouds: missing
Weather: no significant weather forecast for this period
Text: TEMPO 1606/1610 18010KT TSRA SCT140CB
Forecast period: 0600 to 1000 UTC 16 September 2019
Forecast type: TEMPORARY: The following changes expected for less than half the time period
Winds: from the S (180 degrees) at 12 MPH (10 knots; 5.1 m/s)
Visibility: missing
Ceiling: at least 12,000 feet AGL
Clouds: scattered clouds at 14000 feet AGL
Weather: TSRA  (rain associated with thunderstorm(s))